EZY2363 EGGP-EGNS
Flight info
| Callsign | EZY2363 |
|---|---|
| Flight time | 0h 20m |
| Altitude | 12000 |
| Route | WAL M146 LUSOD DCT IOM |
| Aircraft | A20N/M-SDE2E3FGHIRWXY/LB1 |
Departure
| Time | 2026-04-22 20:06 |
|---|---|
| Airport | Liverpool John Lennon Airport (EGGP) |
Arrival
| Time | 2026-04-22 20:26 |
|---|---|
| Airport | Isle of Man Airport (EGNS) |
| Time | Latitude | Longitude | Altitude | Speed | Heading |
|---|---|---|---|---|---|
| 2026-04-22 20:00 | 53.33654 | -2.85653 | 100 ft | 0 kts | 356° |
| 2026-04-22 20:01 | 53.33648 | -2.85652 | 100 ft | 4 kts | 354° |
| 2026-04-22 20:01 | 53.33623 | -2.85642 | 97 ft | 4 kts | 327° |
| 2026-04-22 20:02 | 53.33607 | -2.85613 | 98 ft | 4 kts | 274° |
| 2026-04-22 20:02 | 53.33607 | -2.85602 | 96 ft | 1 kts | 265° |
| 2026-04-22 20:03 | 53.33607 | -2.85606 | 96 ft | 3 kts | 265° |
| 2026-04-22 20:04 | 53.33602 | -2.85690 | 97 ft | 12 kts | 265° |
| 2026-04-22 20:04 | 53.33592 | -2.85889 | 97 ft | 22 kts | 267° |
| 2026-04-22 20:04 | 53.33582 | -2.86194 | 98 ft | 29 kts | 262° |
| 2026-04-22 20:04 | 53.33511 | -2.86313 | 97 ft | 11 kts | 173° |
| 2026-04-22 20:05 | 53.33463 | -2.86365 | 97 ft | 10 kts | 239° |
| 2026-04-22 20:05 | 53.33421 | -2.86431 | 97 ft | 8 kts | 186° |
| 2026-04-22 20:05 | 53.33350 | -2.86412 | 97 ft | 12 kts | 157° |
| 2026-04-22 20:05 | 53.33302 | -2.86291 | 98 ft | 13 kts | 92° |
| 2026-04-22 20:06 | 53.33320 | -2.85896 | 97 ft | 72 kts | 85° |
| 2026-04-22 20:06 | 53.33373 | -2.84582 | 202 ft | 144 kts | 86° |
| 2026-04-22 20:06 | 53.33454 | -2.82730 | 785 ft | 171 kts | 86° |
| 2026-04-22 20:06 | 53.33564 | -2.80774 | 1891 ft | 169 kts | 85° |
| 2026-04-22 20:07 | 53.33966 | -2.78725 | 2545 ft | 210 kts | 63° |
| 2026-04-22 20:07 | 53.35252 | -2.77123 | 3154 ft | 257 kts | 23° |
| 2026-04-22 20:07 | 53.37110 | -2.77017 | 3746 ft | 280 kts | 348° |
| 2026-04-22 20:07 | 53.38782 | -2.78722 | 4466 ft | 289 kts | 310° |
| 2026-04-22 20:08 | 53.39621 | -2.81709 | 5578 ft | 283 kts | 275° |
| 2026-04-22 20:08 | 53.39466 | -2.84929 | 6660 ft | 277 kts | 253° |
| 2026-04-22 20:08 | 53.39050 | -2.88071 | 7614 ft | 281 kts | 256° |
| 2026-04-22 20:08 | 53.38782 | -2.91363 | 8548 ft | 286 kts | 262° |
| 2026-04-22 20:09 | 53.38683 | -2.94720 | 9461 ft | 292 kts | 266° |
| 2026-04-22 20:09 | 53.38696 | -2.98143 | 10400 ft | 296 kts | 268° |
| 2026-04-22 20:09 | 53.38772 | -3.01673 | 10975 ft | 313 kts | 269° |
| 2026-04-22 20:09 | 53.38890 | -3.05454 | 11340 ft | 336 kts | 270° |
| 2026-04-22 20:10 | 53.39040 | -3.09442 | 11986 ft | 348 kts | 271° |
| 2026-04-22 20:10 | 53.39542 | -3.13466 | 12701 ft | 362 kts | 290° |
| 2026-04-22 20:10 | 53.40821 | -3.17138 | 13222 ft | 369 kts | 305° |
| 2026-04-22 20:10 | 53.42505 | -3.20389 | 13388 ft | 370 kts | 313° |
| 2026-04-22 20:11 | 53.44371 | -3.23384 | 13399 ft | 372 kts | 317° |
| 2026-04-22 20:11 | 53.46295 | -3.26291 | 13396 ft | 372 kts | 317° |
| 2026-04-22 20:11 | 53.48212 | -3.29215 | 13399 ft | 373 kts | 316° |
| 2026-04-22 20:11 | 53.50102 | -3.32196 | 13388 ft | 373 kts | 315° |
| 2026-04-22 20:12 | 53.51962 | -3.35236 | 13394 ft | 373 kts | 314° |
| 2026-04-22 20:12 | 53.53792 | -3.38310 | 13393 ft | 372 kts | 314° |
| 2026-04-22 20:12 | 53.54997 | -3.40366 | 13395 ft | 373 kts | 314° |
| 2026-04-22 20:12 | 53.57352 | -3.44552 | 13392 ft | 371 kts | 308° |
| 2026-04-22 20:13 | 53.58937 | -3.47964 | 13393 ft | 370 kts | 306° |
| 2026-04-22 20:13 | 53.60472 | -3.51432 | 13393 ft | 369 kts | 305° |
| 2026-04-22 20:13 | 53.61969 | -3.54946 | 13382 ft | 369 kts | 304° |
| 2026-04-22 20:13 | 53.63444 | -3.58475 | 13381 ft | 368 kts | 304° |
| 2026-04-22 20:14 | 53.64913 | -3.62014 | 13381 ft | 369 kts | 303° |
| 2026-04-22 20:14 | 53.66386 | -3.65576 | 13386 ft | 372 kts | 303° |
| 2026-04-22 20:14 | 53.67873 | -3.69152 | 13378 ft | 373 kts | 303° |
| 2026-04-22 20:14 | 53.69368 | -3.72743 | 13387 ft | 374 kts | 303° |
| 2026-04-22 20:15 | 53.70862 | -3.76327 | 13377 ft | 373 kts | 303° |
| 2026-04-22 20:15 | 53.72354 | -3.79903 | 13379 ft | 372 kts | 303° |
| 2026-04-22 20:15 | 53.73840 | -3.83473 | 13379 ft | 371 kts | 303° |
| 2026-04-22 20:15 | 53.75324 | -3.87042 | 13379 ft | 371 kts | 303° |
| 2026-04-22 20:16 | 53.76803 | -3.90620 | 13382 ft | 372 kts | 303° |
| 2026-04-22 20:16 | 53.78293 | -3.94213 | 13386 ft | 372 kts | 303° |
| 2026-04-22 20:16 | 53.79775 | -3.97795 | 13382 ft | 372 kts | 303° |
| 2026-04-22 20:16 | 53.81261 | -4.01393 | 13382 ft | 374 kts | 303° |
| 2026-04-22 20:17 | 53.82746 | -4.04994 | 13226 ft | 371 kts | 303° |
| 2026-04-22 20:17 | 53.84217 | -4.08562 | 12682 ft | 368 kts | 303° |
| 2026-04-22 20:17 | 53.85678 | -4.12115 | 12130 ft | 366 kts | 303° |
| 2026-04-22 20:17 | 53.87127 | -4.15642 | 11582 ft | 364 kts | 303° |
| 2026-04-22 20:18 | 53.88564 | -4.19146 | 11062 ft | 361 kts | 303° |
| 2026-04-22 20:18 | 53.89988 | -4.22622 | 10659 ft | 355 kts | 302° |
| 2026-04-22 20:18 | 53.91374 | -4.26006 | 10466 ft | 341 kts | 302° |
| 2026-04-22 20:18 | 53.92699 | -4.29256 | 10203 ft | 331 kts | 302° |
| 2026-04-22 20:19 | 53.93892 | -4.32473 | 9575 ft | 324 kts | 297° |
| 2026-04-22 20:19 | 53.94976 | -4.35820 | 8799 ft | 323 kts | 296° |
| 2026-04-22 20:19 | 53.96004 | -4.39202 | 8032 ft | 322 kts | 295° |
| 2026-04-22 20:19 | 53.96993 | -4.42613 | 7282 ft | 322 kts | 294° |
| 2026-04-22 20:20 | 53.97964 | -4.46032 | 6546 ft | 321 kts | 294° |
| 2026-04-22 20:20 | 53.98918 | -4.49422 | 5893 ft | 315 kts | 294° |
| 2026-04-22 20:20 | 53.99856 | -4.52779 | 5129 ft | 314 kts | 294° |
| 2026-04-22 20:20 | 54.00926 | -4.56013 | 4363 ft | 315 kts | 305° |
| 2026-04-22 20:21 | 54.02466 | -4.58628 | 3606 ft | 313 kts | 327° |
| 2026-04-22 20:21 | 54.04439 | -4.60014 | 2830 ft | 305 kts | 355° |
| 2026-04-22 20:21 | 54.06472 | -4.59737 | 2251 ft | 283 kts | 26° |
| 2026-04-22 20:21 | 54.08008 | -4.58021 | 2019 ft | 249 kts | 53° |
| 2026-04-22 20:22 | 54.08808 | -4.55678 | 1996 ft | 214 kts | 78° |
| 2026-04-22 20:22 | 54.09066 | -4.53323 | 1997 ft | 195 kts | 91° |
| 2026-04-22 20:22 | 54.08820 | -4.51102 | 1998 ft | 190 kts | 112° |
| 2026-04-22 20:22 | 54.08347 | -4.49001 | 1989 ft | 191 kts | 103° |
| 2026-04-22 20:23 | 54.08293 | -4.46736 | 1991 ft | 192 kts | 85° |
| 2026-04-22 20:23 | 54.08768 | -4.44658 | 1990 ft | 190 kts | 62° |
| 2026-04-22 20:23 | 54.09788 | -4.43179 | 1993 ft | 202 kts | 30° |
| 2026-04-22 20:23 | 54.11225 | -4.42983 | 1992 ft | 221 kts | 349° |
| 2026-04-22 20:24 | 54.12473 | -4.44518 | 2013 ft | 227 kts | 303° |
| 2026-04-22 20:24 | 54.12802 | -4.46945 | 2093 ft | 202 kts | 255° |
| 2026-04-22 20:24 | 54.12238 | -4.49029 | 2034 ft | 193 kts | 231° |
| 2026-04-22 20:24 | 54.11525 | -4.50982 | 1587 ft | 196 kts | 229° |
| 2026-04-22 20:25 | 54.10809 | -4.52925 | 1179 ft | 188 kts | 229° |
| 2026-04-22 20:25 | 54.10141 | -4.54774 | 925 ft | 179 kts | 230° |
| 2026-04-22 20:25 | 54.09517 | -4.56524 | 687 ft | 166 kts | 233° |
| 2026-04-22 20:25 | 54.08948 | -4.58152 | 467 ft | 154 kts | 234° |
| 2026-04-22 20:26 | 54.08637 | -4.59867 | 268 ft | 152 kts | 260° |
| 2026-04-22 20:26 | 54.08428 | -4.61616 | 59 ft | 144 kts | 256° |
| 2026-04-22 20:26 | 54.08241 | -4.63073 | 46 ft | 97 kts | 258° |
| 2026-04-22 20:26 | 54.08149 | -4.63807 | 38 ft | 33 kts | 266° |
| 2026-04-22 20:27 | 54.08201 | -4.63899 | 38 ft | 7 kts | 345° |
| 2026-04-22 20:27 | 54.08221 | -4.63902 | 42 ft | 5 kts | 358° |
| 2026-04-22 20:27 | 54.08264 | -4.63824 | 47 ft | 16 kts | 60° |
| 2026-04-22 20:27 | 54.08333 | -4.63602 | 50 ft | 22 kts | 67° |
| 2026-04-22 20:28 | 54.08374 | -4.63381 | 45 ft | 7 kts | 28° |
| 2026-04-22 20:28 | 54.08412 | -4.63385 | 46 ft | 11 kts | 330° |
| 2026-04-22 20:28 | 54.08485 | -4.63351 | 48 ft | 18 kts | 34° |
| 2026-04-22 20:28 | 54.08556 | -4.63285 | 48 ft | 5 kts | 43° |
| 2026-04-22 20:29 | 54.08565 | -4.63270 | 48 ft | 0 kts | 43° |
| 2026-04-22 20:32 | 54.08563 | -4.63273 | 48 ft | 2 kts | 43° |
| 2026-04-22 20:32 | 54.08545 | -4.63304 | 48 ft | 4 kts | 56° |
| 2026-04-22 20:32 | 54.08537 | -4.63331 | 48 ft | 4 kts | 136° |
| 2026-04-22 20:32 | 54.08538 | -4.63334 | 48 ft | 1 kts | 168° |